sensor_id;sensor_type;location;lat;lon;timestamp;pressure;altitude;pressure_sealevel;temperature;humidity
35291;BME280;21411;50.024;19.220;2024-01-27T00:02:07;99291.87;;;4.84;100.00
35291;BME280;21411;50.024;19.220;2024-01-27T00:04:35;99303.95;;;4.81;100.00
35291;BME280;21411;50.024;19.220;2024-01-27T00:07:03;99315.11;;;4.79;100.00
35291;BME280;21411;50.024;19.220;2024-01-27T00:09:30;99329.77;;;4.78;100.00
35291;BME280;21411;50.024;19.220;2024-01-27T00:11:56;99336.70;;;4.76;100.00
35291;BME280;21411;50.024;19.220;2024-01-27T00:14:23;99346.98;;;4.69;100.00
35291;BME280;21411;50.024;19.220;2024-01-27T00:16:50;99366.46;;;4.61;100.00
35291;BME280;21411;50.024;19.220;2024-01-27T00:19:16;99374.66;;;4.54;100.00
35291;BME280;21411;50.024;19.220;2024-01-27T00:21:43;99379.24;;;4.49;100.00
35291;BME280;21411;50.024;19.220;2024-01-27T00:24:09;99391.03;;;4.44;100.00
35291;BME280;21411;50.024;19.220;2024-01-27T00:26:36;99404.35;;;4.40;100.00
35291;BME280;21411;50.024;19.220;2024-01-27T00:29:03;99409.82;;;4.35;100.00
35291;BME280;21411;50.024;19.220;2024-01-27T00:31:30;99420.10;;;4.27;100.00
35291;BME280;21411;50.024;19.220;2024-01-27T00:33:57;99417.97;;;4.18;100.00
35291;BME280;21411;50.024;19.220;2024-01-27T00:36:23;99424.42;;;4.09;100.00
35291;BME280;21411;50.024;19.220;2024-01-27T00:38:50;99417.15;;;4.06;100.00
35291;BME280;21411;50.024;19.220;2024-01-27T00:41:17;99414.62;;;4.08;100.00
35291;BME280;21411;50.024;19.220;2024-01-27T00:43:45;99413.37;;;4.13;100.00
35291;BME280;21411;50.024;19.220;2024-01-27T00:46:12;99411.84;;;4.17;100.00
35291;BME280;21411;50.024;19.220;2024-01-27T00:48:39;99418.20;;;4.21;100.00
35291;BME280;21411;50.024;19.220;2024-01-27T00:51:05;99425.48;;;4.24;100.00
35291;BME280;21411;50.024;19.220;2024-01-27T00:53:32;99431.20;;;4.27;100.00
35291;BME280;21411;50.024;19.220;2024-01-27T00:55:59;99431.65;;;4.29;100.00
35291;BME280;21411;50.024;19.220;2024-01-27T00:58:25;99434.73;;;4.32;100.00
35291;BME280;21411;50.024;19.220;2024-01-27T01:00:52;99436.92;;;4.34;100.00
35291;BME280;21411;50.024;19.220;2024-01-27T01:03:18;99444.29;;;4.35;100.00
35291;BME280;21411;50.024;19.220;2024-01-27T01:05:46;99449.92;;;4.35;100.00
35291;BME280;21411;50.024;19.220;2024-01-27T01:08:13;99453.77;;;4.35;100.00
35291;BME280;21411;50.024;19.220;2024-01-27T01:10:39;99460.17;;;4.38;100.00
35291;BME280;21411;50.024;19.220;2024-01-27T01:13:06;99459.47;;;4.38;100.00
35291;BME280;21411;50.024;19.220;2024-01-27T01:15:32;99459.70;;;4.37;100.00
35291;BME280;21411;50.024;19.220;2024-01-27T01:17:59;99462.50;;;4.38;100.00
35291;BME280;21411;50.024;19.220;2024-01-27T01:20:26;99470.24;;;4.37;100.00
35291;BME280;21411;50.024;19.220;2024-01-27T01:22:53;99469.55;;;4.37;100.00
35291;BME280;21411;50.024;19.220;2024-01-27T01:25:20;99470.77;;;4.37;100.00
35291;BME280;21411;50.024;19.220;2024-01-27T01:27:46;99472.53;;;4.37;100.00
35291;BME280;21411;50.024;19.220;2024-01-27T01:30:16;99480.27;;;4.38;100.00
35291;BME280;21411;50.024;19.220;2024-01-27T01:32:43;99480.06;;;4.38;100.00
35291;BME280;21411;50.024;19.220;2024-01-27T01:35:10;99478.84;;;4.38;100.00
35291;BME280;21411;50.024;19.220;2024-01-27T01:37:36;99485.20;;;4.37;100.00
35291;BME280;21411;50.024;19.220;2024-01-27T01:40:04;99489.25;;;4.37;100.00
35291;BME280;21411;50.024;19.220;2024-01-27T01:42:30;99484.50;;;4.37;100.00
35291;BME280;21411;50.024;19.220;2024-01-27T01:44:57;99487.63;;;4.38;100.00
35291;BME280;21411;50.024;19.220;2024-01-27T01:47:24;99485.19;;;4.37;100.00
35291;BME280;21411;50.024;19.220;2024-01-27T01:49:52;99485.86;;;4.38;100.00
35291;BME280;21411;50.024;19.220;2024-01-27T01:52:21;99490.48;;;4.37;100.00
35291;BME280;21411;50.024;19.220;2024-01-27T01:54:48;99494.64;;;4.38;100.00
35291;BME280;21411;50.024;19.220;2024-01-27T01:57:15;99493.70;;;4.41;100.00
35291;BME280;21411;50.024;19.220;2024-01-27T01:59:42;99503.98;;;4.44;100.00
35291;BME280;21411;50.024;19.220;2024-01-27T02:02:09;99502.21;;;4.44;100.00
35291;BME280;21411;50.024;19.220;2024-01-27T02:04:40;99504.38;;;4.43;100.00
35291;BME280;21411;50.024;19.220;2024-01-27T02:07:07;99510.58;;;4.41;100.00
35291;BME280;21411;50.024;19.220;2024-01-27T02:09:34;99502.85;;;4.40;100.00
35291;BME280;21411;50.024;19.220;2024-01-27T02:12:01;99513.27;;;4.39;100.00
35291;BME280;21411;50.024;19.220;2024-01-27T02:14:28;99514.14;;;4.39;100.00
35291;BME280;21411;50.024;19.220;2024-01-27T02:16:55;99508.58;;;4.38;100.00
35291;BME280;21411;50.024;19.220;2024-01-27T02:19:21;99507.75;;;4.36;100.00
35291;BME280;21411;50.024;19.220;2024-01-27T02:21:48;99510.01;;;4.37;100.00
35291;BME280;21411;50.024;19.220;2024-01-27T02:24:14;99510.32;;;4.38;100.00
35291;BME280;21411;50.024;19.220;2024-01-27T02:26:41;99509.35;;;4.36;100.00
35291;BME280;21411;50.024;19.220;2024-01-27T02:29:08;99509.63;;;4.33;100.00
35291;BME280;21411;50.024;19.220;2024-01-27T02:31:34;99508.15;;;4.30;100.00
35291;BME280;21411;50.024;19.220;2024-01-27T02:34:01;99505.55;;;4.28;100.00
35291;BME280;21411;50.024;19.220;2024-01-27T02:36:27;99508.04;;;4.28;100.00
35291;BME280;21411;50.024;19.220;2024-01-27T02:38:54;99509.14;;;4.26;100.00
35291;BME280;21411;50.024;19.220;2024-01-27T02:41:21;99507.95;;;4.25;100.00
35291;BME280;21411;50.024;19.220;2024-01-27T02:43:47;99514.88;;;4.23;100.00
35291;BME280;21411;50.024;19.220;2024-01-27T02:46:14;99520.70;;;4.23;100.00
35291;BME280;21411;50.024;19.220;2024-01-27T02:48:42;99521.55;;;4.23;100.00
35291;BME280;21411;50.024;19.220;2024-01-27T02:51:08;99518.21;;;4.23;100.00
35291;BME280;21411;50.024;19.220;2024-01-27T02:53:35;99525.25;;;4.23;100.00
35291;BME280;21411;50.024;19.220;2024-01-27T02:56:02;99523.84;;;4.23;100.00
35291;BME280;21411;50.024;19.220;2024-01-27T02:58:28;99525.96;;;4.23;100.00
35291;BME280;21411;50.024;19.220;2024-01-27T03:00:55;99525.48;;;4.21;100.00
35291;BME280;21411;50.024;19.220;2024-01-27T03:03:22;99521.48;;;4.20;100.00
35291;BME280;21411;50.024;19.220;2024-01-27T03:05:48;99521.70;;;4.18;100.00
35291;BME280;21411;50.024;19.220;2024-01-27T03:08:15;99520.54;;;4.16;100.00
35291;BME280;21411;50.024;19.220;2024-01-27T03:10:41;99525.84;;;4.15;100.00
35291;BME280;21411;50.024;19.220;2024-01-27T03:13:08;99527.11;;;4.15;100.00
35291;BME280;21411;50.024;19.220;2024-01-27T03:15:34;99532.58;;;4.14;100.00
35291;BME280;21411;50.024;19.220;2024-01-27T03:18:01;99538.35;;;4.15;100.00
35291;BME280;21411;50.024;19.220;2024-01-27T03:20:27;99538.17;;;4.15;100.00
35291;BME280;21411;50.024;19.220;2024-01-27T03:22:54;99539.81;;;4.13;100.00
35291;BME280;21411;50.024;19.220;2024-01-27T03:25:21;99530.86;;;4.12;100.00
35291;BME280;21411;50.024;19.220;2024-01-27T03:27:47;99532.13;;;4.12;100.00
35291;BME280;21411;50.024;19.220;2024-01-27T03:30:14;99528.42;;;4.12;100.00
35291;BME280;21411;50.024;19.220;2024-01-27T03:32:40;99528.52;;;4.09;100.00
35291;BME280;21411;50.024;19.220;2024-01-27T03:35:07;99533.35;;;4.07;100.00
35291;BME280;21411;50.024;19.220;2024-01-27T03:37:33;99538.59;;;4.07;100.00
35291;BME280;21411;50.024;19.220;2024-01-27T03:40:01;99550.88;;;4.08;100.00
35291;BME280;21411;50.024;19.220;2024-01-27T03:42:27;99562.30;;;4.08;100.00
35291;BME280;21411;50.024;19.220;2024-01-27T03:44:54;99562.45;;;4.04;100.00
35291;BME280;21411;50.024;19.220;2024-01-27T03:47:21;99566.46;;;3.93;100.00
35291;BME280;21411;50.024;19.220;2024-01-27T03:49:47;99576.60;;;3.83;100.00
35291;BME280;21411;50.024;19.220;2024-01-27T03:52:14;99576.84;;;3.75;100.00
35291;BME280;21411;50.024;19.220;2024-01-27T03:54:40;99570.59;;;3.67;100.00
35291;BME280;21411;50.024;19.220;2024-01-27T03:57:07;99570.16;;;3.58;100.00
35291;BME280;21411;50.024;19.220;2024-01-27T03:59:33;99570.57;;;3.50;100.00
35291;BME280;21411;50.024;19.220;2024-01-27T04:02:00;99580.59;;;3.43;100.00
35291;BME280;21411;50.024;19.220;2024-01-27T04:04:27;99585.83;;;3.38;100.00
35291;BME280;21411;50.024;19.220;2024-01-27T04:06:53;99595.21;;;3.35;100.00
35291;BME280;21411;50.024;19.220;2024-01-27T04:09:20;99598.27;;;3.33;100.00
35291;BME280;21411;50.024;19.220;2024-01-27T04:11:46;99605.21;;;3.29;100.00
35291;BME280;21411;50.024;19.220;2024-01-27T04:14:13;99610.24;;;3.25;100.00
35291;BME280;21411;50.024;19.220;2024-01-27T04:16:39;99611.39;;;3.21;100.00
35291;BME280;21411;50.024;19.220;2024-01-27T04:19:06;99611.42;;;3.20;100.00
35291;BME280;21411;50.024;19.220;2024-01-27T04:21:32;99607.64;;;3.17;100.00
35291;BME280;21411;50.024;19.220;2024-01-27T04:23:59;99611.70;;;3.17;100.00
35291;BME280;21411;50.024;19.220;2024-01-27T04:26:26;99623.64;;;3.17;100.00
35291;BME280;21411;50.024;19.220;2024-01-27T04:28:52;99626.48;;;3.16;100.00
35291;BME280;21411;50.024;19.220;2024-01-27T04:31:19;99632.15;;;3.14;100.00
35291;BME280;21411;50.024;19.220;2024-01-27T04:33:45;99626.77;;;3.11;100.00
35291;BME280;21411;50.024;19.220;2024-01-27T04:36:12;99626.14;;;3.08;100.00
35291;BME280;21411;50.024;19.220;2024-01-27T04:38:38;99626.67;;;3.08;100.00
35291;BME280;21411;50.024;19.220;2024-01-27T04:41:05;99626.69;;;3.07;100.00
35291;BME280;21411;50.024;19.220;2024-01-27T04:43:32;99626.66;;;3.09;100.00
35291;BME280;21411;50.024;19.220;2024-01-27T04:45:58;99630.83;;;3.11;100.00
35291;BME280;21411;50.024;19.220;2024-01-27T04:48:25;99633.05;;;3.13;100.00
35291;BME280;21411;50.024;19.220;2024-01-27T04:50:52;99628.76;;;3.16;100.00
35291;BME280;21411;50.024;19.220;2024-01-27T04:53:18;99626.09;;;3.23;100.00
35291;BME280;21411;50.024;19.220;2024-01-27T04:55:45;99626.41;;;3.31;100.00
35291;BME280;21411;50.024;19.220;2024-01-27T04:58:11;99624.36;;;3.36;100.00
35291;BME280;21411;50.024;19.220;2024-01-27T05:00:38;99626.70;;;3.40;100.00
35291;BME280;21411;50.024;19.220;2024-01-27T05:03:05;99633.57;;;3.46;100.00
35291;BME280;21411;50.024;19.220;2024-01-27T05:05:33;99638.70;;;3.50;100.00
35291;BME280;21411;50.024;19.220;2024-01-27T05:08:00;99641.27;;;3.53;100.00
35291;BME280;21411;50.024;19.220;2024-01-27T05:10:26;99644.34;;;3.56;100.00
35291;BME280;21411;50.024;19.220;2024-01-27T05:12:53;99645.33;;;3.59;100.00
35291;BME280;21411;50.024;19.220;2024-01-27T05:15:21;99646.00;;;3.60;100.00
35291;BME280;21411;50.024;19.220;2024-01-27T05:17:48;99646.34;;;3.60;100.00
35291;BME280;21411;50.024;19.220;2024-01-27T05:20:14;99652.24;;;3.62;100.00
35291;BME280;21411;50.024;19.220;2024-01-27T05:22:41;99651.11;;;3.66;100.00
35291;BME280;21411;50.024;19.220;2024-01-27T05:25:08;99654.22;;;3.67;100.00
35291;BME280;21411;50.024;19.220;2024-01-27T05:27:34;99658.17;;;3.70;100.00
35291;BME280;21411;50.024;19.220;2024-01-27T05:30:01;99659.37;;;3.72;100.00
35291;BME280;21411;50.024;19.220;2024-01-27T05:32:27;99663.06;;;3.71;100.00
35291;BME280;21411;50.024;19.220;2024-01-27T05:34:54;99664.52;;;3.69;100.00
35291;BME280;21411;50.024;19.220;2024-01-27T05:37:21;99664.95;;;3.66;100.00
35291;BME280;21411;50.024;19.220;2024-01-27T05:39:47;99665.92;;;3.64;100.00
35291;BME280;21411;50.024;19.220;2024-01-27T05:42:14;99677.35;;;3.64;100.00
35291;BME280;21411;50.024;19.220;2024-01-27T05:44:40;99677.15;;;3.64;100.00
35291;BME280;21411;50.024;19.220;2024-01-27T05:47:07;99673.64;;;3.64;100.00
35291;BME280;21411;50.024;19.220;2024-01-27T05:49:36;99670.98;;;3.65;100.00
35291;BME280;21411;50.024;19.220;2024-01-27T05:52:04;99667.63;;;3.65;100.00
35291;BME280;21411;50.024;19.220;2024-01-27T05:54:30;99671.04;;;3.63;100.00
35291;BME280;21411;50.024;19.220;2024-01-27T05:56:57;99673.73;;;3.61;100.00
35291;BME280;21411;50.024;19.220;2024-01-27T05:59:24;99673.96;;;3.59;100.00
35291;BME280;21411;50.024;19.220;2024-01-27T06:01:50;99675.90;;;3.59;100.00
35291;BME280;21411;50.024;19.220;2024-01-27T06:04:17;99675.38;;;3.58;100.00
35291;BME280;21411;50.024;19.220;2024-01-27T06:06:44;99671.79;;;3.55;100.00
35291;BME280;21411;50.024;19.220;2024-01-27T06:09:10;99671.85;;;3.53;100.00
35291;BME280;21411;50.024;19.220;2024-01-27T06:11:40;99676.45;;;3.51;100.00
35291;BME280;21411;50.024;19.220;2024-01-27T06:14:07;99675.44;;;3.50;100.00
35291;BME280;21411;50.024;19.220;2024-01-27T06:16:33;99675.84;;;3.48;100.00
35291;BME280;21411;50.024;19.220;2024-01-27T06:19:01;99681.48;;;3.47;100.00
35291;BME280;21411;50.024;19.220;2024-01-27T06:21:28;99685.72;;;3.46;100.00
35291;BME280;21411;50.024;19.220;2024-01-27T06:23:55;99683.82;;;3.45;100.00
35291;BME280;21411;50.024;19.220;2024-01-27T06:26:21;99684.54;;;3.44;100.00
35291;BME280;21411;50.024;19.220;2024-01-27T06:28:48;99690.02;;;3.43;100.00
35291;BME280;21411;50.024;19.220;2024-01-27T06:31:15;99691.80;;;3.42;100.00
35291;BME280;21411;50.024;19.220;2024-01-27T06:33:42;99695.67;;;3.42;100.00
35291;BME280;21411;50.024;19.220;2024-01-27T06:36:09;99699.72;;;3.42;100.00
35291;BME280;21411;50.024;19.220;2024-01-27T06:38:37;99700.73;;;3.43;100.00
35291;BME280;21411;50.024;19.220;2024-01-27T06:41:04;99696.70;;;3.43;100.00
35291;BME280;21411;50.024;19.220;2024-01-27T06:43:30;99699.68;;;3.43;100.00
35291;BME280;21411;50.024;19.220;2024-01-27T06:45:57;99700.73;;;3.43;100.00
35291;BME280;21411;50.024;19.220;2024-01-27T06:48:24;99700.56;;;3.43;100.00
35291;BME280;21411;50.024;19.220;2024-01-27T06:50:53;99705.33;;;3.42;100.00
35291;BME280;21411;50.024;19.220;2024-01-27T06:53:20;99709.31;;;3.44;100.00
35291;BME280;21411;50.024;19.220;2024-01-27T06:55:46;99715.96;;;3.45;100.00
35291;BME280;21411;50.024;19.220;2024-01-27T06:58:13;99722.10;;;3.46;100.00
35291;BME280;21411;50.024;19.220;2024-01-27T07:00:40;99726.32;;;3.46;100.00
35291;BME280;21411;50.024;19.220;2024-01-27T07:03:07;99729.63;;;3.46;100.00
35291;BME280;21411;50.024;19.220;2024-01-27T07:05:34;99728.04;;;3.47;100.00
35291;BME280;21411;50.024;19.220;2024-01-27T07:08:06;99736.27;;;3.48;100.00
35291;BME280;21411;50.024;19.220;2024-01-27T07:10:34;99730.45;;;3.49;100.00
35291;BME280;21411;50.024;19.220;2024-01-27T07:13:01;99739.92;;;3.49;100.00
35291;BME280;21411;50.024;19.220;2024-01-27T07:15:27;99739.21;;;3.50;100.00
35291;BME280;21411;50.024;19.220;2024-01-27T07:17:54;99739.34;;;3.51;100.00
35291;BME280;21411;50.024;19.220;2024-01-27T07:20:21;99743.17;;;3.53;100.00
35291;BME280;21411;50.024;19.220;2024-01-27T07:22:50;99746.13;;;3.54;100.00
35291;BME280;21411;50.024;19.220;2024-01-27T07:25:16;99750.45;;;3.57;100.00
35291;BME280;21411;50.024;19.220;2024-01-27T07:27:43;99752.35;;;3.58;100.00
35291;BME280;21411;50.024;19.220;2024-01-27T07:30:10;99758.67;;;3.58;100.00
35291;BME280;21411;50.024;19.220;2024-01-27T07:32:37;99755.98;;;3.60;100.00
35291;BME280;21411;50.024;19.220;2024-01-27T07:35:04;99754.90;;;3.61;100.00
35291;BME280;21411;50.024;19.220;2024-01-27T07:37:32;99755.20;;;3.64;100.00
35291;BME280;21411;50.024;19.220;2024-01-27T07:39:59;99752.14;;;3.66;100.00
35291;BME280;21411;50.024;19.220;2024-01-27T07:42:25;99753.45;;;3.70;100.00
35291;BME280;21411;50.024;19.220;2024-01-27T07:44:52;99745.73;;;3.75;100.00
35291;BME280;21411;50.024;19.220;2024-01-27T07:47:19;99742.14;;;3.79;100.00
35291;BME280;21411;50.024;19.220;2024-01-27T07:49:46;99745.80;;;3.80;100.00
35291;BME280;21411;50.024;19.220;2024-01-27T07:52:12;99748.36;;;3.82;100.00
35291;BME280;21411;50.024;19.220;2024-01-27T07:54:39;99751.14;;;3.83;100.00
35291;BME280;21411;50.024;19.220;2024-01-27T07:57:06;99746.05;;;3.83;100.00
35291;BME280;21411;50.024;19.220;2024-01-27T07:59:33;99754.35;;;3.81;100.00
35291;BME280;21411;50.024;19.220;2024-01-27T08:02:00;99749.48;;;3.80;100.00
35291;BME280;21411;50.024;19.220;2024-01-27T08:04:26;99754.01;;;3.81;100.00
35291;BME280;21411;50.024;19.220;2024-01-27T08:06:53;99756.05;;;3.84;100.00
35291;BME280;21411;50.024;19.220;2024-01-27T08:09:20;99752.64;;;3.86;100.00
35291;BME280;21411;50.024;19.220;2024-01-27T08:11:47;99750.45;;;3.89;100.00
35291;BME280;21411;50.024;19.220;2024-01-27T08:14:18;99755.67;;;3.91;100.00
35291;BME280;21411;50.024;19.220;2024-01-27T08:16:44;99761.80;;;3.91;100.00
35291;BME280;21411;50.024;19.220;2024-01-27T08:19:11;99769.24;;;3.90;100.00
35291;BME280;21411;50.024;19.220;2024-01-27T08:21:38;99773.48;;;3.89;100.00
35291;BME280;21411;50.024;19.220;2024-01-27T08:24:04;99778.06;;;3.88;100.00
35291;BME280;21411;50.024;19.220;2024-01-27T08:26:31;99771.46;;;3.86;100.00
35291;BME280;21411;50.024;19.220;2024-01-27T08:28:58;99775.94;;;3.83;100.00
35291;BME280;21411;50.024;19.220;2024-01-27T08:31:25;99774.96;;;3.80;100.00
35291;BME280;21411;50.024;19.220;2024-01-27T08:33:51;99773.64;;;3.78;100.00
35291;BME280;21411;50.024;19.220;2024-01-27T08:36:18;99775.27;;;3.76;100.00
35291;BME280;21411;50.024;19.220;2024-01-27T08:38:45;99773.14;;;3.75;100.00
35291;BME280;21411;50.024;19.220;2024-01-27T08:41:12;99768.36;;;3.77;100.00
35291;BME280;21411;50.024;19.220;2024-01-27T08:43:39;99761.64;;;3.79;100.00
35291;BME280;21411;50.024;19.220;2024-01-27T08:46:05;99769.52;;;3.80;100.00
35291;BME280;21411;50.024;19.220;2024-01-27T08:48:34;99774.90;;;3.82;100.00
35291;BME280;21411;50.024;19.220;2024-01-27T08:51:00;99769.05;;;3.84;100.00
35291;BME280;21411;50.024;19.220;2024-01-27T08:53:27;99765.92;;;3.89;100.00
35291;BME280;21411;50.024;19.220;2024-01-27T08:55:54;99764.53;;;3.95;100.00
35291;BME280;21411;50.024;19.220;2024-01-27T08:58:20;99761.27;;;3.98;100.00
35291;BME280;21411;50.024;19.220;2024-01-27T09:00:47;99763.89;;;3.99;100.00
35291;BME280;21411;50.024;19.220;2024-01-27T09:03:14;99759.63;;;3.94;100.00
35291;BME280;21411;50.024;19.220;2024-01-27T09:05:41;99768.34;;;3.91;100.00
35291;BME280;21411;50.024;19.220;2024-01-27T09:08:10;99765.62;;;3.88;100.00
35291;BME280;21411;50.024;19.220;2024-01-27T09:10:37;99765.44;;;3.88;100.00
35291;BME280;21411;50.024;19.220;2024-01-27T09:13:04;99768.14;;;3.85;100.00
35291;BME280;21411;50.024;19.220;2024-01-27T09:15:31;99762.86;;;3.79;100.00
35291;BME280;21411;50.024;19.220;2024-01-27T09:17:57;99755.77;;;3.74;100.00
35291;BME280;21411;50.024;19.220;2024-01-27T09:20:24;99761.06;;;3.74;100.00
35291;BME280;21411;50.024;19.220;2024-01-27T09:22:51;99762.51;;;3.79;100.00
35291;BME280;21411;50.024;19.220;2024-01-27T09:25:18;99766.20;;;3.85;100.00
35291;BME280;21411;50.024;19.220;2024-01-27T09:27:44;99774.28;;;3.79;100.00
35291;BME280;21411;50.024;19.220;2024-01-27T09:30:11;99776.34;;;3.68;100.00
35291;BME280;21411;50.024;19.220;2024-01-27T09:32:39;99781.65;;;3.60;100.00
35291;BME280;21411;50.024;19.220;2024-01-27T09:35:06;99783.98;;;3.51;100.00
35291;BME280;21411;50.024;19.220;2024-01-27T09:37:32;99797.18;;;3.43;100.00
35291;BME280;21411;50.024;19.220;2024-01-27T09:39:59;99800.90;;;3.42;100.00
35291;BME280;21411;50.024;19.220;2024-01-27T09:42:29;99800.17;;;3.43;100.00
35291;BME280;21411;50.024;19.220;2024-01-27T09:45:01;99802.48;;;3.42;100.00
35291;BME280;21411;50.024;19.220;2024-01-27T09:47:29;99803.52;;;3.36;100.00
35291;BME280;21411;50.024;19.220;2024-01-27T09:49:56;99803.41;;;3.25;100.00
35291;BME280;21411;50.024;19.220;2024-01-27T09:52:23;99796.89;;;3.11;100.00
35291;BME280;21411;50.024;19.220;2024-01-27T09:54:50;99797.05;;;3.04;100.00
35291;BME280;21411;50.024;19.220;2024-01-27T09:57:17;99795.60;;;2.99;100.00
35291;BME280;21411;50.024;19.220;2024-01-27T09:59:45;99793.97;;;2.94;100.00
35291;BME280;21411;50.024;19.220;2024-01-27T10:02:13;99787.33;;;2.84;100.00
35291;BME280;21411;50.024;19.220;2024-01-27T10:04:42;99784.30;;;2.79;100.00
35291;BME280;21411;50.024;19.220;2024-01-27T10:07:10;99785.45;;;2.82;100.00
35291;BME280;21411;50.024;19.220;2024-01-27T10:09:36;99784.73;;;2.84;100.00
35291;BME280;21411;50.024;19.220;2024-01-27T10:12:04;99780.38;;;2.82;100.00
35291;BME280;21411;50.024;19.220;2024-01-27T10:14:38;99774.02;;;2.75;100.00
35291;BME280;21411;50.024;19.220;2024-01-27T10:17:05;99778.36;;;2.70;100.00
35291;BME280;21411;50.024;19.220;2024-01-27T10:19:35;99787.97;;;2.63;100.00
35291;BME280;21411;50.024;19.220;2024-01-27T10:22:01;99791.93;;;2.59;100.00
35291;BME280;21411;50.024;19.220;2024-01-27T10:24:31;99792.77;;;2.61;100.00
35291;BME280;21411;50.024;19.220;2024-01-27T10:27:05;99790.77;;;2.65;100.00
35291;BME280;21411;50.024;19.220;2024-01-27T10:29:32;99783.90;;;2.65;100.00
35291;BME280;21411;50.024;19.220;2024-01-27T10:32:09;99785.52;;;2.64;100.00
35291;BME280;21411;50.024;19.220;2024-01-27T10:34:37;99786.64;;;2.59;100.00
35291;BME280;21411;50.024;19.220;2024-01-27T10:37:04;99786.49;;;2.59;100.00
35291;BME280;21411;50.024;19.220;2024-01-27T10:39:30;99779.88;;;2.64;100.00
35291;BME280;21411;50.024;19.220;2024-01-27T10:42:02;99772.90;;;2.71;100.00
35291;BME280;21411;50.024;19.220;2024-01-27T10:44:29;99774.90;;;2.75;100.00
35291;BME280;21411;50.024;19.220;2024-01-27T10:46:56;99774.88;;;2.77;100.00
35291;BME280;21411;50.024;19.220;2024-01-27T10:49:28;99775.20;;;2.78;100.00
35291;BME280;21411;50.024;19.220;2024-01-27T10:51:59;99774.97;;;2.80;100.00
35291;BME280;21411;50.024;19.220;2024-01-27T10:54:29;99777.23;;;2.89;100.00
35291;BME280;21411;50.024;19.220;2024-01-27T10:56:57;99776.55;;;2.95;100.00
35291;BME280;21411;50.024;19.220;2024-01-27T10:59:26;99777.56;;;2.97;100.00
35291;BME280;21411;50.024;19.220;2024-01-27T11:01:54;99775.27;;;2.98;100.00
35291;BME280;21411;50.024;19.220;2024-01-27T11:04:23;99778.91;;;2.99;100.00
35291;BME280;21411;50.024;19.220;2024-01-27T11:06:49;99775.99;;;2.97;100.00
35291;BME280;21411;50.024;19.220;2024-01-27T11:09:18;99772.73;;;2.93;100.00
35291;BME280;21411;50.024;19.220;2024-01-27T11:11:45;99779.21;;;2.94;100.00
35291;BME280;21411;50.024;19.220;2024-01-27T11:14:13;99778.59;;;2.98;100.00
35291;BME280;21411;50.024;19.220;2024-01-27T11:16:40;99779.13;;;2.98;100.00
35291;BME280;21411;50.024;19.220;2024-01-27T11:19:11;99781.64;;;2.96;100.00
35291;BME280;21411;50.024;19.220;2024-01-27T11:21:39;99783.90;;;2.96;100.00
35291;BME280;21411;50.024;19.220;2024-01-27T11:24:15;99784.98;;;3.02;100.00
35291;BME280;21411;50.024;19.220;2024-01-27T11:26:42;99787.45;;;3.10;100.00
35291;BME280;21411;50.024;19.220;2024-01-27T11:29:09;99790.70;;;3.13;100.00
35291;BME280;21411;50.024;19.220;2024-01-27T11:31:45;99786.23;;;3.17;100.00
35291;BME280;21411;50.024;19.220;2024-01-27T11:34:12;99789.52;;;3.19;100.00
35291;BME280;21411;50.024;19.220;2024-01-27T11:36:45;99793.16;;;3.21;100.00
35291;BME280;21411;50.024;19.220;2024-01-27T11:39:29;99793.64;;;3.23;100.00
35291;BME280;21411;50.024;19.220;2024-01-27T11:42:07;99795.52;;;3.25;100.00
35291;BME280;21411;50.024;19.220;2024-01-27T11:44:35;99797.68;;;3.30;100.00
35291;BME280;21411;50.024;19.220;2024-01-27T11:47:02;99799.46;;;3.28;100.00
35291;BME280;21411;50.024;19.220;2024-01-27T11:49:29;99805.92;;;3.23;100.00
35291;BME280;21411;50.024;19.220;2024-01-27T11:51:56;99807.95;;;3.19;100.00
35291;BME280;21411;50.024;19.220;2024-01-27T11:54:23;99809.42;;;3.16;100.00
35291;BME280;21411;50.024;19.220;2024-01-27T11:56:50;99813.31;;;3.15;100.00
35291;BME280;21411;50.024;19.220;2024-01-27T11:59:17;99816.64;;;3.15;100.00
35291;BME280;21411;50.024;19.220;2024-01-27T12:01:43;99821.10;;;3.13;100.00
35291;BME280;21411;50.024;19.220;2024-01-27T12:04:10;99825.89;;;3.10;100.00
35291;BME280;21411;50.024;19.220;2024-01-27T12:06:36;99828.60;;;3.06;100.00
35291;BME280;21411;50.024;19.220;2024-01-27T12:09:05;99833.21;;;3.04;100.00
35291;BME280;21411;50.024;19.220;2024-01-27T12:11:38;99834.64;;;3.04;100.00
35291;BME280;21411;50.024;19.220;2024-01-27T12:14:07;99840.65;;;3.02;100.00
35291;BME280;21411;50.024;19.220;2024-01-27T12:16:34;99841.06;;;2.99;100.00
35291;BME280;21411;50.024;19.220;2024-01-27T12:19:01;99838.61;;;2.99;100.00
35291;BME280;21411;50.024;19.220;2024-01-27T12:21:28;99837.94;;;2.98;100.00
35291;BME280;21411;50.024;19.220;2024-01-27T12:23:56;99843.41;;;2.96;100.00
35291;BME280;21411;50.024;19.220;2024-01-27T12:26:29;99843.19;;;2.98;100.00
35291;BME280;21411;50.024;19.220;2024-01-27T12:28:56;99838.83;;;3.05;100.00
35291;BME280;21411;50.024;19.220;2024-01-27T12:31:24;99840.48;;;3.10;100.00
35291;BME280;21411;50.024;19.220;2024-01-27T12:33:53;99844.14;;;3.11;100.00
35291;BME280;21411;50.024;19.220;2024-01-27T12:36:21;99853.28;;;3.10;100.00
35291;BME280;21411;50.024;19.220;2024-01-27T12:38:57;99858.42;;;3.07;100.00
35291;BME280;21411;50.024;19.220;2024-01-27T12:41:25;99856.55;;;3.05;100.00
35291;BME280;21411;50.024;19.220;2024-01-27T12:43:55;99859.55;;;3.05;100.00
35291;BME280;21411;50.024;19.220;2024-01-27T12:46:22;99857.09;;;3.05;100.00
35291;BME280;21411;50.024;19.220;2024-01-27T12:48:50;99853.90;;;3.05;100.00
35291;BME280;21411;50.024;19.220;2024-01-27T12:51:16;99854.92;;;3.07;100.00